Terminal Aerodrome Forecast
Issued by NWS Tuscon, AZ

Home | Current Version | Previous Version | Text Only | Print | Product List | Glossary On
Versions: 1 2 3 4 5 6 7 8 9 10 11 12 13 14
000
FTUS45 KTWC 301100
TAFTUS
TAF
KTUS 301131Z 3012/3112 11013KT P6SM -SHRA SCT040 OVC070
     FM301700 08011KT P6SM -SHRA SCT035 OVC050
     FM310300 14006KT P6SM -SHRA SCT025 OVC040=

USA.gov is the U.S. government's official web portal to all federal, state and local government web resources and services.